Aérodrome :
LOGIN :

S'inscrire | Disclaimer

   EN    FR    IT 

 










Légende :    VFR   VFR Marginal   IFR   IFR Intensif   IFR Très Intensif
Visi : 
Plafond : 
>= 8 km
>= 3000ft
5 à 8 km
1000 à 3000 ft
1500m à 5 km
500 à 1000 ft
800 à 1500m
200 à 500 ft
< 800m
< 200 ft
Symboles :   Orages  Brouillard  Fortes neiges  Fortes précipitations  Vent > 20 kt
SIGMETs :   Divers  Orages  Givrage  Turbulence  Onde Orograph.  Cendres Volcan.






- Altitude de l'aérodrome : 126 ft
- Code IATA : WIC


EGPC - Wick

DERNIER METAR :
  • 161820Z AUTO 21020G33KT 180V250 9999 SCT012/// 04/02 Q0962

METARs EXPIRÉS :
  • 161750Z AUTO 22022G37KT 9999 SCT011/// BKN016/// 04/02 Q0961
  • 161720Z AUTO 22024G38KT 9999 SCT012/// BKN017/// 04/02 Q0962
  • 161650Z 22027G45KT 9999 VCSH SCT015CB 05/02 Q0961
  • 161620Z 22025G45KT 190V250 9999 VCSH SCT015CB 05/01 Q0961

TAF TAF EGPC
Valide du 16 à 18h jusqu'au 17 à 03h UTC


161659Z 1618/1703 22022KT 9999 FEW012 SCT025
TEMPO 1618/1703 5000 SHRA BKN012CB
PROB40
TEMPO 1618/1624 23025G42KT
BECMG 1700/1703 23024G40KT
PROB40
TEMPO 1701/1703 24030G50KT 3000 +SHRA
ATIS : +44 1955 607 596



MET'MAP, la Météo Aéronautique d'un coup d'oeil ! - Copyright ORBIFLY Décembre 2007 - Disclaimer

ORBIFLY MET'MAP TEAM :

Programmation & Développement : Alexandra Zaïnal
Sur une idée originale de : Baudouin d'Aumeries
Assistance à la programmation : Marc-Olivier Méhu
Soutien technique & logistique : Manuel Goepfert

Contact : metmap@orbifly.com




SOURCES & CREDITS :

   NOAA